Time;durP1;ratioP1;P1;durP2;ratioP2;P2;SDS_P1;SDS_P2;PMS_P1;PMS_P2;Temp;Humidity;BMP_temperature;BMP_pressure;BME280_temperature;BME280_humidity;BME280_pressure;Samples;Min_cycle;Max_cycle;Signal;HPM_P1;HPM_P2
2024/01/24 00:00:12;;;;;;;12.50;2.60;;;;;;;7.86;100.00;100894.03;5029431;28;20521;-72
2024/01/24 00:02:40;;;;;;;23.45;3.67;;;;;;;7.92;100.00;100885.06;5020053;28;20038;-72
2024/01/24 00:05:12;;;;;;;15.02;2.60;;;;;;;7.81;100.00;100874.84;5018625;28;20659;-72
2024/01/24 00:07:41;;;;;;;15.63;2.60;;;;;;;7.94;100.00;100892.03;5037221;28;20449;-74
2024/01/24 00:10:10;;;;;;;16.00;2.45;;;;;;;8.02;100.00;100899.75;5029590;28;20045;-72
2024/01/24 00:12:43;;;;;;;13.68;2.55;;;;;;;8.08;100.00;100897.78;5017981;28;20253;-73
2024/01/24 00:15:14;;;;;;;15.38;2.75;;;;;;;8.14;100.00;100882.69;5005588;28;20060;-73
2024/01/24 00:17:43;;;;;;;15.10;2.75;;;;;;;8.19;100.00;100905.38;5006137;28;20436;-73
2024/01/24 00:20:12;;;;;;;13.77;2.72;;;;;;;8.12;100.00;100895.06;5030415;28;20041;-72
2024/01/24 00:22:41;;;;;;;11.32;2.50;;;;;;;8.20;100.00;100908.88;5036275;28;20112;-72
2024/01/24 00:25:11;;;;;;;11.18;2.28;;;;;;;8.21;100.00;100908.81;5014013;28;20054;-72
2024/01/24 00:27:42;;;;;;;16.63;2.53;;;;;;;8.23;100.00;100907.00;5022193;28;20045;-72
2024/01/24 00:30:10;;;;;;;8.50;2.22;;;;;;;8.19;100.00;100901.88;5027524;28;20503;-72
2024/01/24 00:32:40;;;;;;;12.65;2.75;;;;;;;8.25;100.00;100896.41;5032619;28;20049;-73
2024/01/24 00:35:11;;;;;;;10.88;2.28;;;;;;;8.29;100.00;100890.16;5032059;28;20065;-72
2024/01/24 00:37:39;;;;;;;14.98;2.55;;;;;;;8.30;100.00;100895.38;5036573;28;20047;-73
2024/01/24 00:40:09;;;;;;;9.63;2.58;;;;;;;8.32;100.00;100898.00;5027993;28;20050;-74
2024/01/24 00:42:42;;;;;;;11.07;2.60;;;;;;;8.38;100.00;100892.53;5033703;28;20057;-73
2024/01/24 00:45:13;;;;;;;10.63;2.03;;;;;;;8.41;100.00;100892.44;5030869;28;20045;-74
2024/01/24 00:47:43;;;;;;;11.43;1.77;;;;;;;8.44;100.00;100908.19;5030209;28;20053;-73
2024/01/24 00:50:13;;;;;;;7.65;1.80;;;;;;;8.34;100.00;100881.19;5010714;28;20077;-72
2024/01/24 00:52:53;;;;;;;11.32;2.47;;;;;;;8.47;100.00;100899.34;5020347;28;20058;-73
2024/01/24 00:55:22;;;;;;;;;;;;;;;8.50;100.00;100912.44;5023450;28;20062;-72
2024/01/24 00:57:54;;;;;;;11.23;1.80;;;;;;;8.59;100.00;100907.72;5021184;28;19929;-73
2024/01/24 01:00:23;;;;;;;9.35;2.20;;;;;;;8.63;100.00;100901.47;5032351;28;20045;-74
2024/01/24 01:02:53;;;;;;;6.63;1.52;;;;;;;8.61;100.00;100891.84;5038361;28;20065;-75
2024/01/24 01:05:27;;;;;;;9.25;1.92;;;;;;;8.68;100.00;100888.94;5010099;28;20049;-73
2024/01/24 01:07:56;;;;;;;7.75;2.08;;;;;;;8.71;100.00;100890.63;5037588;28;20049;-72
2024/01/24 01:10:25;;;;;;;9.73;2.22;;;;;;;8.67;100.00;100889.88;5018473;28;20223;-72
2024/01/24 01:12:55;;;;;;;13.73;2.30;;;;;;;8.59;100.00;100865.50;5039359;28;20064;-72
2024/01/24 01:15:25;;;;;;;8.30;2.42;;;;;;;8.60;100.00;100855.81;5041466;28;20053;-74
2024/01/24 01:17:56;;;;;;;7.72;1.65;;;;;;;8.78;100.00;100866.66;5039163;28;20058;-72
2024/01/24 01:20:25;;;;;;;11.88;2.00;;;;;;;8.70;100.00;100867.78;5014952;28;20045;-72
2024/01/24 01:22:52;;;;;;;5.47;1.63;;;;;;;8.68;100.00;100870.47;5022140;28;20042;-74
2024/01/24 01:25:21;;;;;;;9.73;1.77;;;;;;;8.69;100.00;100871.34;5004703;28;20159;-72
2024/01/24 01:27:50;;;;;;;7.68;1.65;;;;;;;8.70;100.00;100849.31;5035380;28;20418;-72
2024/01/24 01:30:18;;;;;;;6.93;1.95;;;;;;;8.71;100.00;100849.25;5035169;28;20041;-74
2024/01/24 01:32:47;;;;;;;9.82;2.35;;;;;;;8.85;100.00;100858.50;5010583;28;20136;-73
2024/01/24 01:35:17;;;;;;;9.63;1.67;;;;;;;8.77;100.00;100849.06;5020124;28;20136;-73
2024/01/24 01:37:45;;;;;;;5.72;1.67;;;;;;;8.75;100.00;100845.63;5042286;28;20050;-72
2024/01/24 01:40:13;;;;;;;4.68;1.40;;;;;;;8.71;100.00;100846.63;5018164;28;20046;-73
2024/01/24 01:42:46;;;;;;;12.23;2.05;;;;;;;8.69;100.00;100856.38;5029044;28;20044;-74
2024/01/24 01:45:20;;;;;;;9.48;1.77;;;;;;;8.68;100.00;100838.78;5027201;28;20045;-72
2024/01/24 01:47:52;;;;;;;8.90;1.40;;;;;;;8.69;100.00;100845.81;5045093;28;20045;-73
2024/01/24 01:50:26;;;;;;;3.03;1.23;;;;;;;8.76;100.00;100822.72;5028572;28;20074;-72
2024/01/24 01:52:55;;;;;;;3.20;1.25;;;;;;;8.79;100.00;100815.56;5044006;28;20319;-74
2024/01/24 01:55:23;;;;;;;5.07;1.40;;;;;;;8.87;100.00;100809.16;5044756;28;20054;-73
2024/01/24 01:57:52;;;;;;;5.15;1.00;;;;;;;8.89;100.00;100812.59;5029944;28;20056;-73
2024/01/24 02:00:21;;;;;;;5.22;1.00;;;;;;;8.98;100.00;100817.56;5006633;28;20041;-73
2024/01/24 02:02:50;;;;;;;4.30;1.30;;;;;;;9.06;100.00;100820.81;5022552;28;20136;-73
2024/01/24 02:05:20;;;;;;;5.47;1.13;;;;;;;9.08;100.00;100819.88;5028512;28;20061;-73
2024/01/24 02:07:53;;;;;;;4.15;0.93;;;;;;;9.13;100.00;100804.69;5052357;28;20037;-73
2024/01/24 02:10:22;;;;;;;5.07;1.42;;;;;;;9.15;100.00;100808.16;5026325;28;20481;-73
2024/01/24 02:12:51;;;;;;;7.20;1.10;;;;;;;9.17;100.00;100788.75;5043450;28;20056;-74
2024/01/24 02:15:19;;;;;;;5.80;1.20;;;;;;;9.25;100.00;100802.56;5040310;28;20053;-73
2024/01/24 02:17:49;;;;;;;3.45;0.93;;;;;;;9.27;100.00;100801.59;5023796;28;20146;-73
2024/01/24 02:20:21;;;;;;;3.78;1.15;;;;;;;9.22;100.00;100792.97;5021327;28;20044;-73
2024/01/24 02:22:53;;;;;;;3.92;1.10;;;;;;;9.36;100.00;100784.53;5023911;28;20597;-75
2024/01/24 02:25:23;;;;;;;4.20;1.00;;;;;;;9.43;100.00;100779.00;5020522;28;20541;-73
2024/01/24 02:27:51;;;;;;;2.15;0.95;;;;;;;9.45;100.00;100771.84;5019511;28;20092;-74
2024/01/24 02:30:19;;;;;;;4.07;1.05;;;;;;;9.44;100.00;100777.22;5015350;28;20263;-72
2024/01/24 02:32:47;;;;;;;3.80;1.00;;;;;;;9.47;100.00;100777.94;5039145;28;20041;-72
2024/01/24 02:35:16;;;;;;;4.55;0.80;;;;;;;9.46;100.00;100764.78;5020939;28;20045;-73
2024/01/24 02:37:44;;;;;;;4.38;1.10;;;;;;;9.44;100.00;100767.47;5024552;28;20053;-73
2024/01/24 02:40:13;;;;;;;2.03;0.80;;;;;;;9.43;100.00;100757.00;5018484;28;20407;-73
2024/01/24 02:42:42;;;;;;;3.83;1.30;;;;;;;9.47;100.00;100759.44;5039175;28;20049;-72
2024/01/24 02:45:13;;;;;;;2.03;0.98;;;;;;;9.47;100.00;100756.78;5035218;28;20052;-74
2024/01/24 02:47:42;;;;;;;3.72;1.13;;;;;;;9.50;100.00;100754.03;5041838;28;20060;-74
2024/01/24 02:50:12;;;;;;;4.20;1.13;;;;;;;9.50;100.00;100745.25;5017940;28;20060;-73
2024/01/24 02:52:41;;;;;;;3.17;1.10;;;;;;;9.48;100.00;100765.59;5034742;28;20056;-73
2024/01/24 02:55:17;;;;;;;3.42;0.93;;;;;;;9.43;100.00;100754.34;5007610;28;20045;-73
2024/01/24 02:57:47;;;;;;;4.45;1.45;;;;;;;9.41;100.00;100750.88;5020508;28;20042;-74
2024/01/24 03:00:16;;;;;;;3.85;1.30;;;;;;;9.42;100.00;100748.19;5000529;28;20064;-74
2024/01/24 03:02:46;;;;;;;4.00;1.00;;;;;;;9.39;100.00;100753.59;5035487;28;20068;-74
2024/01/24 03:05:14;;;;;;;2.15;0.90;;;;;;;9.35;100.00;100749.31;5013464;28;20046;-74
2024/01/24 03:07:43;;;;;;;3.72;1.25;;;;;;;9.42;100.00;100745.56;5034896;28;20041;-74
2024/01/24 03:10:11;;;;;;;4.40;1.10;;;;;;;9.48;100.00;100747.09;5038341;28;20394;-74
2024/01/24 03:12:40;;;;;;;1.65;0.82;;;;;;;9.52;100.00;100735.50;5035534;28;20041;-74
2024/01/24 03:15:11;;;;;;;3.75;0.77;;;;;;;9.50;100.00;100740.84;5022798;28;20045;-75
2024/01/24 03:17:40;;;;;;;2.00;0.85;;;;;;;9.57;100.00;100745.91;5024127;28;20072;-74
2024/01/24 03:20:10;;;;;;;1.35;0.50;;;;;;;9.53;100.00;100739.84;5021596;28;20037;-73
2024/01/24 03:22:41;;;;;;;1.73;0.68;;;;;;;9.63;100.00;100743.00;5035954;28;20065;-74
2024/01/24 03:25:12;;;;;;;2.58;0.88;;;;;;;9.68;100.00;100728.72;5045011;28;20045;-73
2024/01/24 03:27:40;;;;;;;;;;;;;;;9.68;100.00;100730.50;5030939;28;20403;-74
2024/01/24 03:30:12;;;;;;;2.60;0.70;;;;;;;9.60;100.00;100708.78;5039002;28;19935;-72
2024/01/24 03:32:42;;;;;;;2.88;0.60;;;;;;;9.78;100.00;100718.63;5009957;28;20045;-73
2024/01/24 03:35:12;;;;;;;2.15;0.50;;;;;;;9.77;100.00;100715.13;5021001;28;20122;-72
2024/01/24 03:37:40;;;;;;;3.55;0.60;;;;;;;9.71;100.00;100696.88;5044069;28;20049;-73
2024/01/24 03:40:11;;;;;;;3.45;0.60;;;;;;;9.72;100.00;100690.66;5023672;28;20055;-74
2024/01/24 03:42:39;;;;;;;1.70;0.70;;;;;;;9.68;100.00;100675.81;5037392;28;20069;-72
2024/01/24 03:45:12;;;;;;;1.20;0.47;;;;;;;9.78;100.00;100677.16;5028606;28;20041;-72
2024/01/24 03:47:42;;;;;;;2.72;0.60;;;;;;;9.78;100.00;100681.59;5030352;28;20068;-74
2024/01/24 03:50:11;;;;;;;1.38;0.60;;;;;;;9.77;100.00;100670.16;5024415;28;20075;-74
2024/01/24 03:52:39;;;;;;;2.80;0.55;;;;;;;9.77;100.00;100670.16;5034836;28;20107;-74
2024/01/24 03:55:08;;;;;;;2.67;0.50;;;;;;;9.85;100.00;100673.38;5038980;28;20163;-76
2024/01/24 03:57:38;;;;;;;1.08;0.47;;;;;;;9.82;100.00;100672.63;5022358;28;20041;-74
2024/01/24 04:00:17;;;;;;;1.60;0.50;;;;;;;9.76;100.00;100673.72;5037131;28;20548;-75
2024/01/24 04:02:46;;;;;;;2.95;0.57;;;;;;;9.81;100.00;100679.72;5018366;28;20037;-75
2024/01/24 04:05:16;;;;;;;2.42;0.57;;;;;;;9.90;100.00;100664.41;5018892;28;20140;-74
2024/01/24 04:07:44;;;;;;;1.85;0.50;;;;;;;9.92;100.00;100667.81;5022777;28;20042;-75
2024/01/24 04:10:12;;;;;;;2.75;0.50;;;;;;;9.95;100.00;100665.94;5038718;28;20056;-74
2024/01/24 04:12:40;;;;;;;1.88;0.40;;;;;;;9.91;100.00;100653.78;5029748;28;20073;-73
2024/01/24 04:15:11;;;;;;;1.00;0.60;;;;;;;9.91;100.00;100640.53;5037534;28;20554;-74
2024/01/24 04:17:41;;;;;;;1.38;0.47;;;;;;;9.92;100.00;100626.38;5002658;28;20064;-73
2024/01/24 04:20:11;;;;;;;2.72;0.50;;;;;;;10.00;100.00;100626.94;5006104;28;20042;-73
2024/01/24 04:22:50;;;;;;;1.77;0.43;;;;;;;9.98;100.00;100599.66;5017852;28;20049;-73
2024/01/24 04:25:19;;;;;;;2.08;0.50;;;;;;;9.92;100.00;100615.78;5031989;28;20045;-74
2024/01/24 04:27:48;;;;;;;2.78;0.40;;;;;;;9.96;100.00;100627.97;5042466;28;20053;-75
2024/01/24 04:30:21;;;;;;;2.28;0.50;;;;;;;9.94;100.00;100628.94;5024359;28;20053;-75
2024/01/24 04:32:49;;;;;;;0.50;0.22;;;;;;;9.91;100.00;100614.09;5016506;28;20077;-75
2024/01/24 04:35:19;;;;;;;1.40;0.35;;;;;;;9.96;100.00;100621.81;5024861;28;20049;-75
2024/01/24 04:37:50;;;;;;;0.52;0.40;;;;;;;9.97;100.00;100632.34;5044443;28;20102;-74
2024/01/24 04:40:18;;;;;;;1.77;0.40;;;;;;;9.97;100.00;100632.34;5025273;28;20101;-73
2024/01/24 04:42:46;;;;;;;0.98;0.30;;;;;;;10.06;100.00;100629.34;5016799;28;20049;-74
2024/01/24 04:45:15;;;;;;;2.55;0.50;;;;;;;10.05;100.00;100630.25;5007374;28;20409;-73
2024/01/24 04:47:45;;;;;;;0.70;0.47;;;;;;;10.08;100.00;100632.75;5019178;28;20136;-73
2024/01/24 04:50:14;;;;;;;0.68;0.30;;;;;;;10.02;100.00;100638.31;5038545;28;20042;-73
2024/01/24 04:52:42;;;;;;;0.65;0.52;;;;;;;10.00;100.00;100626.94;5031472;28;20045;-73
2024/01/24 04:55:13;;;;;;;1.10;0.30;;;;;;;10.01;100.00;100623.38;5018985;28;20041;-73
2024/01/24 04:57:41;;;;;;;1.40;0.50;;;;;;;9.98;100.00;100620.84;5006248;28;20049;-74
2024/01/24 05:00:11;;;;;;;0.93;0.30;;;;;;;10.07;100.00;100619.63;5024207;28;20134;-72
2024/01/24 05:02:40;;;;;;;0.95;0.38;;;;;;;10.08;100.00;100618.66;5015965;28;20837;-73
2024/01/24 05:05:11;;;;;;;1.08;0.52;;;;;;;10.08;100.00;100600.13;5019932;28;20045;-72
2024/01/24 05:07:40;;;;;;;0.47;0.30;;;;;;;10.02;100.00;100601.28;5005888;28;20137;-72
2024/01/24 05:10:11;;;;;;;0.70;0.40;;;;;;;9.91;100.00;100595.56;5037402;28;20109;-73
2024/01/24 05:12:39;;;;;;;0.50;0.40;;;;;;;9.97;100.00;100591.78;5030964;28;20516;-72
2024/01/24 05:15:10;;;;;;;1.60;0.40;;;;;;;9.91;100.00;100594.72;5003726;28;20121;-73
2024/01/24 05:17:42;;;;;;;2.35;0.57;;;;;;;9.91;100.00;100594.72;5021284;28;20068;-73
2024/01/24 05:20:13;;;;;;;1.25;0.38;;;;;;;9.91;100.00;100602.66;5023247;28;20045;-72
2024/01/24 05:22:41;;;;;;;1.42;0.60;;;;;;;9.87;100.00;100595.75;5027670;28;20148;-73
2024/01/24 05:25:10;;;;;;;1.02;0.40;;;;;;;9.80;100.00;100584.56;5026859;28;20049;-73
2024/01/24 05:27:37;;;;;;;0.88;0.50;;;;;;;9.83;100.00;100595.00;5019040;28;20060;-74
2024/01/24 05:30:07;;;;;;;3.47;0.50;;;;;;;9.89;100.00;100599.19;5040082;28;20045;-73
2024/01/24 05:32:52;;;;;;;1.17;0.60;;;;;;;9.85;100.00;100593.16;5031382;28;20045;-73
2024/01/24 05:35:23;;;;;;;1.25;0.60;;;;;;;9.91;100.00;100579.69;5019746;28;20150;-72
2024/01/24 05:37:52;;;;;;;1.17;0.52;;;;;;;9.90;100.00;100570.03;5019598;28;20084;-72
2024/01/24 05:40:23;;;;;;;3.50;0.65;;;;;;;9.98;100.00;100572.34;5019684;28;20047;-73
2024/01/24 05:42:50;;;;;;;0.68;0.50;;;;;;;10.04;100.00;100566.81;5030576;28;20645;-72
2024/01/24 05:45:20;;;;;;;0.98;0.60;;;;;;;10.05;100.00;100574.69;5019917;28;20041;-73
2024/01/24 05:47:52;;;;;;;1.37;0.43;;;;;;;10.02;100.00;100573.97;5025340;28;20509;-73
2024/01/24 05:50:21;;;;;;;2.50;0.50;;;;;;;10.06;100.00;100571.13;5020364;28;20046;-73
2024/01/24 05:52:50;;;;;;;1.58;0.50;;;;;;;10.09;100.00;100562.19;5030056;28;20054;-73
2024/01/24 05:55:18;;;;;;;1.52;0.52;;;;;;;10.12;100.00;100554.97;5018608;28;20143;-73
2024/01/24 05:57:49;;;;;;;2.05;0.50;;;;;;;10.25;100.00;100550.03;5020046;28;20045;-72
2024/01/24 06:00:17;;;;;;;1.75;0.52;;;;;;;10.27;100.00;100571.16;5024074;28;20137;-73
2024/01/24 06:02:47;;;;;;;0.70;0.30;;;;;;;10.19;100.00;100555.63;5032135;28;20048;-73
2024/01/24 06:05:16;;;;;;;1.52;0.40;;;;;;;10.26;100.00;100566.78;5017397;28;20046;-73
2024/01/24 06:07:46;;;;;;;0.47;0.40;;;;;;;10.24;100.00;100556.25;5020532;28;20137;-72
2024/01/24 06:10:16;;;;;;;1.55;0.40;;;;;;;10.22;100.00;100562.56;5021298;28;20044;-73
2024/01/24 06:12:44;;;;;;;1.60;0.40;;;;;;;10.32;100.00;100569.19;5011036;28;20449;-72
2024/01/24 06:15:18;;;;;;;0.85;0.40;;;;;;;10.38;100.00;100558.34;5022703;28;20816;-73
2024/01/24 06:17:46;;;;;;;1.50;0.40;;;;;;;10.40;100.00;100548.50;5022974;28;20054;-73
2024/01/24 06:20:14;;;;;;;2.17;0.40;;;;;;;10.42;100.00;100562.56;5036262;28;20096;-73
2024/01/24 06:22:45;;;;;;;0.35;0.32;;;;;;;10.38;100.00;100555.69;5012909;28;20054;-72
2024/01/24 06:25:16;;;;;;;0.82;0.30;;;;;;;10.35;100.00;100546.09;5030013;28;20058;-72
2024/01/24 06:27:46;;;;;;;0.93;0.30;;;;;;;10.41;100.00;100552.88;5034797;28;20047;-73
2024/01/24 06:30:15;;;;;;;0.43;0.37;;;;;;;10.44;100.00;100566.84;5002556;28;20049;-72
2024/01/24 06:32:51;;;;;;;0.88;0.40;;;;;;;10.40;100.00;100572.34;5031469;28;20049;-72
2024/01/24 06:35:21;;;;;;;2.75;0.75;;;;;;;10.49;100.00;100579.91;5022629;28;20095;-74
2024/01/24 06:37:53;;;;;;;0.90;0.40;;;;;;;10.42;100.00;100570.50;5019241;28;20045;-74
2024/01/24 06:40:23;;;;;;;0.40;0.40;;;;;;;10.37;100.00;100548.69;5023574;28;20053;-72
2024/01/24 06:42:52;;;;;;;0.57;0.30;;;;;;;10.39;100.00;100563.53;5015718;28;20051;-73
2024/01/24 06:45:22;;;;;;;1.75;0.70;;;;;;;10.41;100.00;100566.13;5024088;28;20041;-73
2024/01/24 06:47:54;;;;;;;0.77;0.47;;;;;;;10.44;100.00;100577.44;5022288;28;20038;-72
2024/01/24 06:50:24;;;;;;;0.77;0.30;;;;;;;10.51;100.00;100593.94;5023826;28;22884;-72
2024/01/24 06:52:53;;;;;;;0.40;0.30;;;;;;;10.56;100.00;100615.75;5031429;28;20119;-72
2024/01/24 06:55:25;;;;;;;0.55;0.50;;;;;;;10.57;100.00;100620.13;5019567;28;20099;-73
2024/01/24 06:57:54;;;;;;;0.73;0.40;;;;;;;10.60;100.00;100614.72;5019438;28;20053;-73
2024/01/24 07:00:23;;;;;;;2.85;0.40;;;;;;;10.67;100.00;100610.88;5025838;28;20038;-74
2024/01/24 07:02:51;;;;;;;2.40;0.40;;;;;;;10.73;100.00;100604.44;5017592;28;20136;-72
2024/01/24 07:05:20;;;;;;;1.38;0.75;;;;;;;10.76;100.00;100613.09;5022980;28;20042;-73
2024/01/24 07:07:48;;;;;;;1.05;0.40;;;;;;;10.78;100.00;100629.81;5020272;28;20041;-72
2024/01/24 07:10:21;;;;;;;0.70;0.20;;;;;;;10.86;100.00;100632.94;5039493;28;20057;-73
2024/01/24 07:12:55;;;;;;;2.00;0.40;;;;;;;10.91;100.00;100616.88;5027891;28;20068;-72
2024/01/24 07:15:26;;;;;;;1.08;0.57;;;;;;;10.94;100.00;100629.13;5021480;28;20065;-72
2024/01/24 07:17:55;;;;;;;0.82;0.50;;;;;;;10.97;100.00;100640.44;5022078;28;20046;-74
2024/01/24 07:20:25;;;;;;;1.50;0.50;;;;;;;10.95;100.00;100630.84;5037089;28;20141;-72
2024/01/24 07:22:53;;;;;;;3.08;0.68;;;;;;;10.95;100.00;100638.78;5031005;28;20053;-73
2024/01/24 07:25:23;;;;;;;2.63;0.65;;;;;;;10.94;100.00;100634.41;5037406;28;20069;-73
2024/01/24 07:27:51;;;;;;;2.67;0.93;;;;;;;10.93;100.00;100652.09;5028402;28;20046;-73
2024/01/24 07:30:22;;;;;;;2.47;0.80;;;;;;;10.86;100.00;100638.25;5023884;28;20136;-73
2024/01/24 07:32:50;;;;;;;1.95;0.90;;;;;;;10.85;100.00;100627.75;5016590;28;20065;-74
2024/01/24 07:35:21;;;;;;;3.13;0.80;;;;;;;10.82;100.00;100623.44;5040097;28;20560;-73
2024/01/24 07:37:49;;;;;;;2.13;0.70;;;;;;;10.82;100.00;100649.06;5038540;28;20487;-73
2024/01/24 07:40:18;;;;;;;1.63;0.50;;;;;;;10.92;100.00;100663.63;5006104;28;20037;-75
2024/01/24 07:42:49;;;;;;;3.03;0.70;;;;;;;10.96;100.00;100644.03;5035612;28;20038;-73
2024/01/24 07:45:18;;;;;;;2.10;0.37;;;;;;;10.97;100.00;100650.19;5038219;28;20161;-71
2024/01/24 07:47:51;;;;;;;1.98;0.35;;;;;;;11.09;100.00;100666.38;5036594;28;20132;-73
2024/01/24 07:50:20;;;;;;;0.45;0.35;;;;;;;11.18;100.00;100675.72;5021992;28;20045;-73
2024/01/24 07:52:50;;;;;;;0.95;0.47;;;;;;;11.31;100.00;100681.34;5029161;28;20057;-72
2024/01/24 07:55:18;;;;;;;1.33;0.38;;;;;;;11.37;100.00;100663.34;5023186;28;20133;-71
2024/01/24 07:58:02;;;;;;;2.63;0.47;;;;;;;11.42;100.00;100687.88;5035925;28;20052;-73
2024/01/24 08:00:32;;;;;;;1.48;0.20;;;;;;;11.49;100.00;100689.28;5023655;28;20049;-72
2024/01/24 08:03:03;;;;;;;1.67;0.38;;;;;;;11.53;100.00;100703.28;5011651;28;20050;-72
2024/01/24 08:05:32;;;;;;;0.75;0.28;;;;;;;11.47;100.00;100693.84;5022854;28;20042;-71
2024/01/24 08:08:05;;;;;;;1.42;0.50;;;;;;;11.43;100.00;100708.16;5024964;28;20068;-72
2024/01/24 08:10:34;;;;;;;2.22;0.32;;;;;;;11.51;100.00;100700.69;5021855;28;20577;-71
2024/01/24 08:13:04;;;;;;;1.88;0.50;;;;;;;11.49;100.00;100689.28;5016809;28;20046;-70
2024/01/24 08:15:34;;;;;;;2.72;0.32;;;;;;;11.52;100.00;100681.19;5023595;28;20065;-72
2024/01/24 08:18:13;;;;;;;1.60;0.40;;;;;;;11.52;100.00;100705.06;5040250;28;21058;-71
2024/01/24 08:20:42;;;;;;;4.15;0.43;;;;;;;11.48;100.00;100700.84;5020463;28;20048;-71
2024/01/24 08:23:11;;;;;;;2.05;0.50;;;;;;;11.49;100.00;100710.50;5019269;28;20055;-71
2024/01/24 08:25:41;;;;;;;3.22;0.40;;;;;;;11.50;100.00;100712.22;5019763;28;20076;-71
2024/01/24 08:28:09;;;;;;;3.88;0.45;;;;;;;11.51;100.00;100705.13;5036884;28;20060;-71
2024/01/24 08:30:38;;;;;;;1.88;0.40;;;;;;;11.59;100.00;100717.13;5023821;28;20045;-72
2024/01/24 08:33:08;;;;;;;2.67;0.80;;;;;;;11.61;100.00;100722.38;5033769;28;20061;-74
2024/01/24 08:35:43;;;;;;;2.03;0.40;;;;;;;11.66;100.00;100719.47;5035628;28;20041;-75
2024/01/24 08:38:12;;;;;;;1.20;0.43;;;;;;;11.79;100.00;100713.59;5008784;28;20075;-75
2024/01/24 08:40:43;;;;;;;1.67;0.50;;;;;;;11.86;100.00;100715.00;5038366;28;20041;-77
2024/01/24 08:43:12;;;;;;;0.45;0.30;;;;;;;11.95;100.00;100729.66;5024051;28;20169;-76
2024/01/24 08:45:40;;;;;;;2.50;0.38;;;;;;;12.12;100.00;100728.84;5036452;28;20728;-76
2024/01/24 08:48:17;;;;;;;2.53;0.80;;;;;;;12.10;100.00;100742.19;5055470;28;20077;-75
2024/01/24 08:50:46;;;;;;;3.00;0.60;;;;;;;12.11;100.00;100733.31;5032342;28;20517;-76
2024/01/24 08:53:16;;;;;;;2.78;0.98;;;;;;;12.11;100.00;100720.03;5022400;28;20237;-77
2024/01/24 08:55:45;;;;;;;0.80;0.20;;;;;;;12.13;100.00;100727.88;5013405;28;20054;-75
2024/01/24 08:58:21;;;;;;;2.75;0.43;;;;;;;12.20;100.00;100740.81;5010996;28;20125;-79
2024/01/24 09:00:54;;;;;;;2.42;0.60;;;;;;;12.28;100.00;100738.63;5045002;28;20049;-77
2024/01/24 09:03:28;;;;;;;2.95;0.60;;;;;;;12.26;100.00;100753.81;5033880;28;20052;-78
2024/01/24 09:05:59;;;;;;;1.23;0.20;;;;;;;12.18;100.00;100755.94;5029849;28;20055;-77
2024/01/24 09:08:54;;;;;;;1.35;0.55;;;;;;;12.24;100.00;100763.63;5052901;28;20045;-77
2024/01/24 09:11:23;;;;;;;0.98;0.45;;;;;;;12.38;100.00;100757.66;5029005;28;20057;-75
2024/01/24 09:14:04;;;;;;;1.35;0.50;;;;;;;12.20;100.00;100740.81;5034821;28;20069;-78
2024/01/24 09:16:33;;;;;;;2.25;0.65;;;;;;;12.29;100.00;100768.69;5015877;28;20073;-78
2024/01/24 09:19:03;;;;;;;2.72;0.32;;;;;;;12.05;100.00;100749.50;5032365;28;20037;-79
2024/01/24 09:21:34;;;;;;;1.50;0.30;;;;;;;12.06;100.00;100783.09;5035550;28;20073;-80
2024/01/24 09:24:05;;;;;;;3.08;0.50;;;;;;;12.01;100.00;100782.44;5041755;28;20148;-76
2024/01/24 09:26:33;;;;;;;;;;;;;;;12.00;100.00;100809.03;5024370;28;20057;-74
2024/01/24 09:29:05;;;;;;;5.28;0.70;;;;;;;11.87;100.00;100829.97;5028113;28;19931;-74
2024/01/24 09:31:37;;;;;;;6.40;1.08;;;;;;;11.84;100.00;100822.16;5027571;28;20049;-79
2024/01/24 09:34:06;;;;;;;4.97;1.50;;;;;;;11.61;100.00;100809.91;5041995;28;20623;-76
2024/01/24 09:36:36;;;;;;;7.33;0.87;;;;;;;11.67;100.00;100846.75;5041656;28;20464;-74
2024/01/24 09:39:05;;;;;;;6.18;1.77;;;;;;;11.68;100.00;100840.50;5021371;28;20934;-74
2024/01/24 09:41:41;;;;;;;7.38;1.27;;;;;;;11.73;100.00;100842.97;5043788;28;20045;-74
2024/01/24 09:44:11;;;;;;;7.22;1.10;;;;;;;11.67;100.00;100828.19;5022427;28;20050;-75
2024/01/24 09:46:43;;;;;;;6.45;1.40;;;;;;;11.58;100.00;100853.34;5043496;28;20038;-75
2024/01/24 09:49:14;;;;;;;9.48;1.40;;;;;;;11.50;100.00;100863.41;5025022;28;20064;-76
2024/01/24 09:51:45;;;;;;;11.57;1.45;;;;;;;11.69;100.00;100863.47;5026068;28;20071;-75
2024/01/24 09:54:17;;;;;;;6.60;1.27;;;;;;;11.81;100.00;100860.28;5015447;28;20041;-75
2024/01/24 09:56:50;;;;;;;5.47;1.20;;;;;;;11.83;100.00;100861.09;5030246;28;20046;-76
2024/01/24 09:59:19;;;;;;;4.13;1.00;;;;;;;11.86;100.00;100876.00;5031096;28;20040;-76
2024/01/24 10:01:50;;;;;;;8.15;1.20;;;;;;;11.89;100.00;100878.53;5026930;28;20095;-76
2024/01/24 10:04:21;;;;;;;5.80;1.73;;;;;;;11.92;100.00;100891.69;5023605;28;20046;-76
2024/01/24 10:06:53;;;;;;;9.05;1.25;;;;;;;11.93;100.00;100883.66;5024163;28;20103;-76
2024/01/24 10:09:22;;;;;;;5.28;1.17;;;;;;;12.06;100.00;100867.16;5023087;28;20053;-76
2024/01/24 10:11:50;;;;;;;9.13;1.00;;;;;;;12.13;100.00;100872.09;5024252;28;20506;-79
2024/01/24 10:14:21;;;;;;;10.35;1.50;;;;;;;12.18;100.00;100862.16;5017905;28;20041;-75
2024/01/24 10:16:52;;;;;;;10.40;1.52;;;;;;;12.28;100.00;100852.81;5045167;28;20049;-76
2024/01/24 10:19:24;;;;;;;13.40;2.47;;;;;;;12.36;100.00;100875.50;5015990;28;20069;-75
2024/01/24 10:21:57;;;;;;;16.00;2.38;;;;;;;12.27;100.00;100863.53;5021251;28;20049;-76
2024/01/24 10:24:31;;;;;;;12.03;2.20;;;;;;;12.22;100.00;100850.47;5017374;28;20053;-75
2024/01/24 10:27:04;;;;;;;14.40;2.40;;;;;;;12.24;100.00;100845.09;5039296;28;20034;-77
2024/01/24 10:29:32;;;;;;;11.63;2.55;;;;;;;12.20;100.00;100868.25;5038637;28;20107;-77
2024/01/24 10:32:01;;;;;;;11.35;2.17;;;;;;;12.22;100.00;100873.50;5042062;28;20046;-76
2024/01/24 10:34:31;;;;;;;19.77;2.55;;;;;;;12.10;100.00;100882.91;5034065;28;20053;-76
2024/01/24 10:37:04;;;;;;;12.32;2.30;;;;;;;12.04;100.00;100887.59;5014040;28;20898;-76
2024/01/24 10:39:39;;;;;;;15.88;2.47;;;;;;;12.09;100.00;100885.63;5040614;28;20038;-77
2024/01/24 10:42:08;;;;;;;18.65;2.60;;;;;;;12.06;100.00;100889.25;5041563;28;20121;-75
2024/01/24 10:44:44;;;;;;;15.88;2.25;;;;;;;12.12;100.00;100891.63;5032283;28;20049;-75
2024/01/24 10:47:13;;;;;;;11.80;2.53;;;;;;;12.13;100.00;100900.44;5030716;28;20092;-75
2024/01/24 10:49:51;;;;;;;15.65;2.53;;;;;;;12.11;100.00;100881.09;5039772;28;20040;-73
2024/01/24 10:52:23;;;;;;;12.32;1.85;;;;;;;12.07;100.00;100888.34;5029601;28;20045;-76
2024/01/24 10:54:54;;;;;;;20.98;2.58;;;;;;;12.04;100.00;100880.50;5019678;28;20486;-75
2024/01/24 10:57:25;;;;;;;20.23;3.22;;;;;;;12.27;100.00;100892.75;5031008;28;20073;-74
2024/01/24 10:59:57;;;;;;;17.15;2.85;;;;;;;12.29;100.00;100898.81;5027212;28;20073;-74
2024/01/24 11:02:27;;;;;;;16.15;2.55;;;;;;;12.29;95.75;100907.66;5041138;28;20041;-76
2024/01/24 11:05:00;;;;;;;21.63;2.40;;;;;;;12.45;86.13;100901.63;5021837;28;20076;-73
2024/01/24 11:07:35;;;;;;;15.73;2.67;;;;;;;12.54;81.60;100895.91;5043595;28;20524;-74
2024/01/24 11:10:21;;;;;;;16.77;2.42;;;;;;;12.57;79.88;100909.03;5037403;28;20071;-73
2024/01/24 11:12:49;;;;;;;14.32;3.00;;;;;;;12.68;79.56;100896.09;5047334;28;20800;-73
2024/01/24 11:15:21;;;;;;;18.17;2.72;;;;;;;12.81;81.55;100912.31;5026037;28;20050;-73
2024/01/24 11:18:19;;;;;;;12.32;2.33;;;;;;;12.90;82.70;100918.06;5053015;28;20061;-73
2024/01/24 11:20:53;;;;;;;19.63;2.65;;;;;;;13.00;83.37;100927.31;5034529;28;20049;-73
2024/01/24 11:23:43;;;;;;;14.60;2.88;;;;;;;13.16;82.72;100910.66;5046639;28;20394;-73
2024/01/24 11:26:33;;;;;;;12.85;2.45;;;;;;;13.16;77.41;100894.69;5036314;28;20047;-74
2024/01/24 11:29:06;;;;;;;20.77;3.10;;;;;;;13.25;74.55;100920.81;5024889;28;20437;-73
2024/01/24 11:31:38;;;;;;;18.08;2.88;;;;;;;13.21;75.49;100929.91;5031442;28;20410;-74
2024/01/24 11:34:09;;;;;;;13.55;2.85;;;;;;;13.24;75.36;100932.38;5019823;28;20145;-73